FZAA/FIH METAR and TAF weather

Enter ICAO airport designator
Station Type Date Time Source
FZAA METAR 2019/12/14 19:00 UTC NOAA

FZAA 141900Z 20008KT 8000 SCT016 BKN080 25/23 Q1013 NOSIG


Station Type Date Time Source
FZAA Decoded METAR 2019/12/14 19:00 UTC NOAA

Kinshasa / N'Djili, Congo, Democratic Republic of the (FZAA) 04-23S 015-26E 312M
Dec 14, 2019 - 02:00 PM EST / 2019.12.14 1900 UTC
Wind: from the SSW (200 degrees) at 9 MPH (8 KT):0
Visibility: 4 mile(s):0
Sky conditions: mostly cloudy
Temperature: 77 F (25 C)
Dew Point: 73 F (23 C)
Relative Humidity: 88%
Pressure (altimeter): 29.91 in. Hg (1013 hPa)
ob: FZAA 141900Z 20008KT 8000 SCT016 BKN080 25/23 Q1013 NOSIG
cycle: 19

Station Type Date Time Source
FZAA TAF 2019/12/14 18:33 UTC NOAA

TAF FZAA 141700Z 1418/1524 24006KT 9999 SCT020
BECMG 1422/1424BKN018 FEW028CB PROB30
TEMPO 1501/15046000 -TSRA
BECMG 1506/1508 SCT020
BECMG 1510/1512 30010KT 8000 SCT023 FEW030CB

Example: see airport list